Time;durP1;ratioP1;P1;durP2;ratioP2;P2;SDS_P1;SDS_P2;PMS_P1;PMS_P2;Temp;Humidity;BMP_temperature;BMP_pressure;BME280_temperature;BME280_humidity;BME280_pressure;Samples;Min_cycle;Max_cycle;Signal;HPM_P1;HPM_P2
2022/12/02 12:21:40;;;;;;;18.93;8.91;;;;;;;;;;4258121;27;20331;-40
2022/12/02 12:22:42;;;;;;;17.48;9.05;;;;;;;;;;2129423;27;20043;-41
2022/12/02 12:23:44;;;;;;;21.92;9.80;;;;;;;;;;2129545;27;20047;-44
2022/12/02 12:24:45;;;;;;;;;;;;;;;;;;2129620;27;20096;-45
2022/12/02 12:25:46;;;;;;;17.58;7.40;;;;;;;;;;2129459;27;20395;-44
2022/12/02 12:26:47;;;;;;;19.58;10.13;;;;;;;;;;2129378;27;20043;-45
2022/12/02 12:27:48;;;;;;;13.85;8.20;;;;;;;;;;2128629;27;20115;-46
2022/12/02 12:28:50;;;;;;;14.15;7.68;;;;;;;;;;2120895;28;20043;-44
2022/12/02 12:29:51;;;;;;;18.70;10.15;;;;;;;;;;2120845;28;20096;-44
2022/12/02 12:30:52;;;;;;;15.45;8.43;;;;;;;;;;2120764;28;20063;-44
2022/12/02 12:31:53;;;;;;;21.17;11.30;;;;;;;;;;2120993;28;20069;-46
2022/12/02 12:32:55;;;;;;;21.98;10.35;;;;;;;;;;2121331;28;20047;-44
2022/12/02 12:33:56;;;;;;;15.38;8.55;;;;;;;;;;2121151;28;20120;-45
2022/12/02 12:34:57;;;;;;;21.98;10.25;;;;;;;;;;2121377;28;20051;-42
2022/12/02 12:35:58;;;;;;;16.50;9.68;;;;;;;;;;2121385;28;20138;-41
2022/12/02 12:37:00;;;;;;;24.65;10.98;;;;;;;;;;2121169;28;20051;-42
2022/12/02 12:38:01;;;;;;;;;;;;;;;;;;2121538;28;20055;-42
2022/12/02 12:39:03;;;;;;;20.13;9.02;;;;;;;;;;2121074;28;20006;-42
2022/12/02 12:40:05;;;;;;;23.02;9.23;;;;;;;;;;2121080;28;20044;-42
2022/12/02 12:41:05;;;;;;;20.95;10.75;;;;;;;;;;2121210;28;20043;-41
2022/12/02 12:42:07;;;;;;;22.52;9.95;;;;;;;;;;2121271;28;20051;-42
2022/12/02 12:43:07;;;;;;;22.27;10.35;;;;;;;;;;2121130;28;20043;-42
2022/12/02 12:44:09;;;;;;;24.35;11.45;;;;;;;;;;2121176;28;20122;-42
2022/12/02 12:45:10;;;;;;;18.48;7.88;;;;;;;;;;2123669;27;20402;-42
2022/12/02 12:46:11;;;;;;;22.50;10.65;;;;;;;;;;2129868;27;20051;-45
2022/12/02 12:47:12;;;;;;;22.35;11.32;;;;;;;;;;2129802;27;20050;-45
2022/12/02 12:48:13;;;;;;;20.13;10.10;;;;;;;;;;2129756;27;20111;-45
2022/12/02 12:49:14;;;;;;;24.63;11.75;;;;;;;;;;2129619;27;20497;-46
2022/12/02 12:50:16;;;;;;;23.20;11.30;;;;;;;;;;2129642;27;20058;-45
2022/12/02 12:51:17;;;;;;;24.10;10.68;;;;;;;;;;2129747;27;20050;-41
2022/12/02 12:52:19;;;;;;;23.42;11.05;;;;;;;;;;2129487;27;20399;-42
2022/12/02 12:53:20;;;;;;;21.92;12.73;;;;;;;;;;2129610;27;20479;-42
2022/12/02 12:54:21;;;;;;;25.67;11.10;;;;;;;;;;2129620;27;20043;-45
2022/12/02 12:55:22;;;;;;;22.88;8.65;;;;;;;;;;2129828;27;20493;-41
2022/12/02 12:56:23;;;;;;;22.20;10.35;;;;;;;;;;2129518;27;20043;-41
2022/12/02 12:57:24;;;;;;;22.67;11.40;;;;;;;;;;2129533;27;20470;-41
2022/12/02 12:58:25;;;;;;;24.10;10.95;;;;;;;;;;2129510;27;20051;-41
2022/12/02 12:59:26;;;;;;;19.35;10.75;;;;;;;;;;2129683;27;20054;-45
2022/12/02 13:00:27;;;;;;;22.25;11.80;;;;;;;;;;2129543;27;20074;-46
2022/12/02 13:01:28;;;;;;;23.02;10.75;;;;;;;;;;2129461;27;20081;-45
2022/12/02 13:02:29;;;;;;;26.08;10.65;;;;;;;;;;2129430;27;20047;-45
2022/12/02 13:03:31;;;;;;;28.27;12.50;;;;;;;;;;2129634;27;20045;-46
2022/12/02 13:04:32;;;;;;;18.48;8.68;;;;;;;;;;2129430;27;20395;-47
2022/12/02 13:05:33;;;;;;;21.20;11.05;;;;;;;;;;2129446;27;20042;-45
2022/12/02 13:06:37;;;;;;;25.17;12.18;;;;;;;;;;2129681;27;20518;-46
2022/12/02 13:07:44;;;;;;;21.15;11.90;;;;;;;;;;2129595;27;20071;-45
2022/12/02 13:08:45;;;;;;;;;;;;;;;;;;2129967;27;20051;-45
2022/12/02 13:09:46;;;;;;;22.77;8.95;;;;;;;;;;2129357;27;19969;-45
2022/12/02 13:10:47;;;;;;;24.70;11.75;;;;;;;;;;2129654;27;20046;-41
2022/12/02 13:11:49;;;;;;;20.13;10.30;;;;;;;;;;2129845;27;20058;-41
2022/12/02 13:12:51;;;;;;;20.48;8.88;;;;;;;;;;2129548;27;20051;-42
2022/12/02 13:13:52;;;;;;;25.80;11.40;;;;;;;;;;2129406;27;20054;-41
2022/12/02 13:14:53;;;;;;;21.33;11.30;;;;;;;;;;2129526;27;20487;-42
2022/12/02 13:15:55;;;;;;;28.48;12.40;;;;;;;;;;2129655;27;20130;-42
2022/12/02 13:16:56;;;;;;;23.00;11.73;;;;;;;;;;2129312;27;20054;-41
2022/12/02 13:17:57;;;;;;;26.27;12.13;;;;;;;;;;2129470;27;20142;-41
2022/12/02 13:18:58;;;;;;;27.05;11.75;;;;;;;;;;2128963;27;20066;-41
2022/12/02 13:19:59;;;;;;;22.83;12.30;;;;;;;;;;2129535;27;20082;-41
2022/12/02 13:21:00;;;;;;;25.70;11.20;;;;;;;;;;2126155;27;20388;-41
2022/12/02 13:22:01;;;;;;;33.40;12.38;;;;;;;;;;2123765;28;20039;-41
2022/12/02 13:23:03;;;;;;;22.02;9.82;;;;;;;;;;2123588;28;20047;-41
2022/12/02 13:24:04;;;;;;;;;;;;;;;;;;2124379;28;20050;-45
2022/12/02 13:25:06;;;;;;;22.92;10.93;;;;;;;;;;2123565;28;19935;-45
2022/12/02 13:26:08;;;;;;;21.27;11.63;;;;;;;;;;2123747;28;20076;-45
2022/12/02 13:27:15;;;;;;;21.60;10.75;;;;;;;;;;2123701;28;20054;-45
2022/12/02 13:28:17;;;;;;;24.48;12.05;;;;;;;;;;2123515;28;20043;-45
2022/12/02 13:29:18;;;;;;;22.35;11.95;;;;;;;;;;2123656;28;20054;-46
2022/12/02 13:30:21;;;;;;;21.40;10.95;;;;;;;;;;2123518;28;20043;-45
2022/12/02 13:31:22;;;;;;;25.83;11.63;;;;;;;;;;2123662;28;20050;-46
2022/12/02 13:32:23;;;;;;;18.53;10.43;;;;;;;;;;2123609;28;20475;-45
2022/12/02 13:33:24;;;;;;;20.65;10.32;;;;;;;;;;2123680;28;20124;-45
2022/12/02 13:34:25;;;;;;;20.45;9.60;;;;;;;;;;2123612;28;20051;-45
2022/12/02 13:35:26;;;;;;;29.50;11.77;;;;;;;;;;2123641;28;20100;-45
2022/12/02 13:36:27;;;;;;;23.13;11.43;;;;;;;;;;2123589;28;20487;-44
2022/12/02 13:37:28;;;;;;;21.80;10.52;;;;;;;;;;2123677;28;20445;-45
2022/12/02 13:38:30;;;;;;;26.77;11.70;;;;;;;;;;2123810;28;20048;-41
2022/12/02 13:39:31;;;;;;;19.02;9.32;;;;;;;;;;2123730;28;20074;-43
2022/12/02 13:40:33;;;;;;;22.08;10.80;;;;;;;;;;2123548;28;20084;-45
2022/12/02 13:41:34;;;;;;;23.33;10.23;;;;;;;;;;2123498;28;20046;-45
2022/12/02 13:42:35;;;;;;;19.15;10.10;;;;;;;;;;2123915;28;20050;-40
2022/12/02 13:43:36;;;;;;;21.85;10.30;;;;;;;;;;2123670;28;20054;-40
2022/12/02 13:44:37;;;;;;;25.83;10.63;;;;;;;;;;2123774;28;20043;-45
2022/12/02 13:45:40;;;;;;;20.90;9.68;;;;;;;;;;2123546;28;20039;-44
2022/12/02 13:46:41;;;;;;;22.50;10.20;;;;;;;;;;2123460;28;20058;-44
2022/12/02 13:47:42;;;;;;;19.77;10.55;;;;;;;;;;2123560;28;20049;-44
2022/12/02 13:48:43;;;;;;;25.48;10.63;;;;;;;;;;2123669;28;20055;-44
2022/12/02 13:49:44;;;;;;;19.63;10.27;;;;;;;;;;2123373;28;20043;-46
2022/12/02 13:50:45;;;;;;;18.88;7.90;;;;;;;;;;2123621;28;20047;-46
2022/12/02 13:51:46;;;;;;;24.17;11.25;;;;;;;;;;2123646;28;20403;-45
2022/12/02 13:52:48;;;;;;;23.15;11.32;;;;;;;;;;2123536;28;20483;-45
2022/12/02 13:53:49;;;;;;;21.80;10.55;;;;;;;;;;2123385;28;20483;-45
2022/12/02 13:54:58;;;;;;;24.15;10.30;;;;;;;;;;2123388;28;20054;-46
2022/12/02 13:55:59;;;;;;;19.17;9.73;;;;;;;;;;2123273;28;20480;-45
2022/12/02 13:57:00;;;;;;;24.70;9.85;;;;;;;;;;2123376;28;20399;-46
2022/12/02 13:58:01;;;;;;;18.15;9.00;;;;;;;;;;2123581;28;20047;-47
2022/12/02 13:59:02;;;;;;;18.33;10.18;;;;;;;;;;2123338;28;20047;-45
2022/12/02 14:00:04;;;;;;;17.25;8.65;;;;;;;;;;2123482;28;20046;-41
2022/12/02 14:01:05;;;;;;;19.58;9.80;;;;;;;;;;2123441;28;20051;-41
2022/12/02 14:02:08;;;;;;;20.10;9.60;;;;;;;;;;2123562;28;20085;-41
2022/12/02 14:03:10;;;;;;;19.60;8.55;;;;;;;;;;2123376;28;20068;-41
2022/12/02 14:04:11;;;;;;;21.60;10.07;;;;;;;;;;2123368;28;20080;-41
2022/12/02 14:05:12;;;;;;;22.05;9.63;;;;;;;;;;2123439;28;20049;-41
2022/12/02 14:06:13;;;;;;;24.60;9.73;;;;;;;;;;2123439;28;20403;-41
2022/12/02 14:07:14;;;;;;;21.10;9.25;;;;;;;;;;2123901;28;20104;-41
2022/12/02 14:08:15;;;;;;;17.48;9.60;;;;;;;;;;2123290;28;20217;-41
2022/12/02 14:09:17;;;;;;;18.88;8.88;;;;;;;;;;2123233;28;20043;-41
2022/12/02 14:10:18;;;;;;;20.50;9.38;;;;;;;;;;2123337;28;20051;-41
2022/12/02 14:11:19;;;;;;;21.38;10.25;;;;;;;;;;2123220;28;20487;-41
2022/12/02 14:12:22;;;;;;;20.98;9.32;;;;;;;;;;2123190;28;20449;-41
2022/12/02 14:13:23;;;;;;;23.17;11.00;;;;;;;;;;2123285;28;20077;-40
2022/12/02 14:14:25;;;;;;;22.23;10.75;;;;;;;;;;2123327;28;20055;-41
2022/12/02 14:15:26;;;;;;;20.02;10.95;;;;;;;;;;2121035;28;20050;-41
2022/12/02 14:16:27;;;;;;;22.70;10.57;;;;;;;;;;2114886;28;20055;-40
2022/12/02 14:17:28;;;;;;;19.98;8.55;;;;;;;;;;2114952;28;20050;-40
2022/12/02 14:18:29;;;;;;;21.55;11.57;;;;;;;;;;2114768;28;20048;-41
2022/12/02 14:19:30;;;;;;;20.65;10.63;;;;;;;;;;2114436;28;20044;-41
2022/12/02 14:20:32;;;;;;;22.08;10.75;;;;;;;;;;2114870;28;20058;-40
2022/12/02 14:21:33;;;;;;;28.65;12.75;;;;;;;;;;2114946;28;20051;-40
2022/12/02 14:22:34;;;;;;;23.70;11.68;;;;;;;;;;2114957;28;20446;-46
2022/12/02 14:23:35;;;;;;;23.75;12.02;;;;;;;;;;2114642;28;20496;-45
2022/12/02 14:24:37;;;;;;;20.92;9.18;;;;;;;;;;2114731;28;20170;-45
2022/12/02 14:25:37;;;;;;;25.33;11.82;;;;;;;;;;2114836;28;20051;-45
2022/12/02 14:26:39;;;;;;;23.02;12.07;;;;;;;;;;2114648;28;20040;-46
2022/12/02 14:27:40;;;;;;;25.52;12.20;;;;;;;;;;2114712;28;20548;-45
2022/12/02 14:28:41;;;;;;;21.10;9.43;;;;;;;;;;2114697;28;20403;-45
2022/12/02 14:29:42;;;;;;;28.17;12.30;;;;;;;;;;2114767;28;20040;-44
2022/12/02 14:30:43;;;;;;;20.23;10.98;;;;;;;;;;2114739;28;20484;-45
2022/12/02 14:31:44;;;;;;;22.35;9.32;;;;;;;;;;2114702;28;20527;-44
2022/12/02 14:32:45;;;;;;;19.40;9.07;;;;;;;;;;2114116;28;20284;-41
2022/12/02 14:33:46;;;;;;;19.92;10.07;;;;;;;;;;2114822;28;20115;-43
2022/12/02 14:35:09;;;;;;;18.48;7.82;;;;;;;;;;2114545;28;20466;-45
2022/12/02 14:36:10;;;;;;;18.70;9.70;;;;;;;;;;2114907;28;20046;-40
2022/12/02 14:37:11;;;;;;;19.63;10.38;;;;;;;;;;2114860;28;20472;-40
2022/12/02 14:38:16;;;;;;;20.35;9.07;;;;;;;;;;2114783;28;20174;-40
2022/12/02 14:39:17;;;;;;;18.50;9.45;;;;;;;;;;2114635;28;20046;-40
2022/12/02 14:40:19;;;;;;;15.35;9.77;;;;;;;;;;2114712;28;20108;-40
2022/12/02 14:41:20;;;;;;;14.98;7.35;;;;;;;;;;2114764;28;20058;-40
2022/12/02 14:42:21;;;;;;;17.98;9.10;;;;;;;;;;2114630;28;20039;-40
2022/12/02 14:43:23;;;;;;;16.45;7.43;;;;;;;;;;2114797;28;20108;-40
2022/12/02 14:44:23;;;;;;;17.25;9.35;;;;;;;;;;2114697;28;20040;-44
2022/12/02 14:45:25;;;;;;;19.92;8.90;;;;;;;;;;2120883;28;20071;-41
2022/12/02 14:46:29;;;;;;;17.65;9.07;;;;;;;;;;2122842;28;20047;-40
2022/12/02 14:47:30;;;;;;;16.63;8.80;;;;;;;;;;2122455;28;20143;-44
2022/12/02 14:48:31;;;;;;;18.77;9.60;;;;;;;;;;2122679;28;20054;-40
2022/12/02 14:49:32;;;;;;;15.48;9.30;;;;;;;;;;2122782;28;20047;-44
2022/12/02 14:50:42;;;;;;;14.55;8.52;;;;;;;;;;2122398;28;20050;-45
2022/12/02 14:51:43;;;;;;;19.13;10.25;;;;;;;;;;2122495;28;20074;-42
2022/12/02 14:52:45;;;;;;;15.87;10.23;;;;;;;;;;2123319;28;20051;-40
2022/12/02 14:53:46;;;;;;;16.95;9.27;;;;;;;;;;2123051;28;20054;-40
2022/12/02 14:54:50;;;;;;;17.15;9.43;;;;;;;;;;2122761;28;20081;-40
2022/12/02 14:55:53;;;;;;;13.65;9.60;;;;;;;;;;2122615;28;20039;-44
2022/12/02 14:56:54;;;;;;;15.02;8.00;;;;;;;;;;2123006;28;20504;-40
2022/12/02 14:57:55;;;;;;;16.80;9.48;;;;;;;;;;2123273;28;20047;-44
2022/12/02 14:58:56;;;;;;;17.00;9.23;;;;;;;;;;2123164;28;20443;-39
2022/12/02 14:59:57;;;;;;;54.63;25.02;;;;;;;;;;2122990;28;20047;-44
2022/12/02 15:00:58;;;;;;;18.23;11.18;;;;;;;;;;2123049;28;20043;-45
2022/12/02 15:01:59;;;;;;;14.65;9.20;;;;;;;;;;2123033;28;20440;-44
2022/12/02 15:03:00;;;;;;;15.38;9.18;;;;;;;;;;2123238;28;20043;-40
2022/12/02 15:04:02;;;;;;;18.73;9.47;;;;;;;;;;2123016;28;20051;-40
2022/12/02 15:05:03;;;;;;;17.02;7.20;;;;;;;;;;2123039;28;20293;-44
2022/12/02 15:06:04;;;;;;;14.20;7.25;;;;;;;;;;2122965;28;20134;-44
2022/12/02 15:07:05;;;;;;;19.77;9.80;;;;;;;;;;2123033;28;20050;-40
2022/12/02 15:08:07;;;;;;;18.80;9.57;;;;;;;;;;2123094;28;20437;-44
2022/12/02 15:09:07;;;;;;;18.23;9.52;;;;;;;;;;2122943;28;20492;-40
2022/12/02 15:10:09;;;;;;;17.75;8.80;;;;;;;;;;2122906;28;20078;-44
2022/12/02 15:11:11;;;;;;;19.33;9.73;;;;;;;;;;2122919;28;20054;-45
2022/12/02 15:12:12;;;;;;;16.88;9.02;;;;;;;;;;2116676;28;20067;-39
2022/12/02 15:13:13;;;;;;;16.52;9.32;;;;;;;;;;2114697;28;20373;-40
2022/12/02 15:14:14;;;;;;;17.80;8.90;;;;;;;;;;2114589;28;20047;-40
2022/12/02 15:15:15;;;;;;;16.75;9.20;;;;;;;;;;2114482;28;20044;-40
2022/12/02 15:16:36;;;;;;;18.45;8.00;;;;;;;;;;2114413;28;20417;-40
2022/12/02 15:17:38;;;;;;;17.63;10.13;;;;;;;;;;2114587;28;20105;-40
2022/12/02 15:18:39;;;;;;;35.40;18.88;;;;;;;;;;2114508;28;20043;-40
2022/12/02 15:19:40;;;;;;;16.38;8.63;;;;;;;;;;2114300;28;20052;-44
2022/12/02 15:20:41;;;;;;;22.53;11.03;;;;;;;;;;2114425;28;20101;-44
2022/12/02 15:21:42;;;;;;;18.00;9.25;;;;;;;;;;2114415;28;20407;-43
2022/12/02 15:22:44;;;;;;;17.52;9.18;;;;;;;;;;2114522;28;20048;-40
2022/12/02 15:23:45;;;;;;;23.55;13.80;;;;;;;;;;2114606;28;20100;-40
2022/12/02 15:24:46;;;;;;;22.02;11.77;;;;;;;;;;2114294;28;20051;-42
2022/12/02 15:25:47;;;;;;;14.90;8.68;;;;;;;;;;2114521;28;20051;-40
2022/12/02 15:26:49;;;;;;;18.75;10.18;;;;;;;;;;2114543;28;20047;-44
2022/12/02 15:27:56;;;;;;;15.95;8.50;;;;;;;;;;2114633;28;20047;-40
2022/12/02 15:28:57;;;;;;;19.83;9.07;;;;;;;;;;2114568;28;20047;-40
2022/12/02 15:29:58;;;;;;;18.67;9.17;;;;;;;;;;2114504;28;20079;-40
2022/12/02 15:30:59;;;;;;;17.88;8.95;;;;;;;;;;2113920;28;20043;-40
2022/12/02 15:32:01;;;;;;;19.38;9.85;;;;;;;;;;2114386;28;20404;-40
2022/12/02 15:33:02;;;;;;;16.85;6.97;;;;;;;;;;2114606;28;20051;-44
2022/12/02 15:34:03;;;;;;;17.17;8.90;;;;;;;;;;2114392;28;20039;-45
2022/12/02 15:35:05;;;;;;;15.90;8.68;;;;;;;;;;2114303;28;20420;-44
2022/12/02 18:34:24;;;;;;;20.03;11.08;;;;;;;;;;4276356;27;20822;-45
2022/12/02 18:35:26;;;;;;;17.25;9.18;;;;;;;;;;2129728;27;20046;-45
2022/12/02 18:36:27;;;;;;;16.25;10.27;;;;;;;;;;2129810;27;20128;-44
2022/12/02 18:37:28;;;;;;;19.17;9.93;;;;;;;;;;2127486;27;20508;-45
2022/12/02 18:38:29;;;;;;;25.88;11.02;;;;;;;;;;2121350;28;20055;-46
2022/12/02 18:39:31;;;;;;;17.40;9.80;;;;;;;;;;2121160;28;20504;-44
2022/12/02 18:40:32;;;;;;;19.77;10.75;;;;;;;;;;2121206;28;20663;-45
2022/12/02 18:41:33;;;;;;;17.40;10.90;;;;;;;;;;2120998;28;20407;-45
2022/12/02 18:42:34;;;;;;;18.42;11.27;;;;;;;;;;2121195;28;20541;-45
2022/12/02 18:43:35;;;;;;;16.23;9.83;;;;;;;;;;2121569;28;20043;-40
2022/12/02 18:44:37;;;;;;;20.10;9.75;;;;;;;;;;2121331;28;20047;-40
2022/12/02 18:45:38;;;;;;;19.37;10.23;;;;;;;;;;2121158;28;20047;-40
2022/12/02 18:46:39;;;;;;;19.55;10.35;;;;;;;;;;2121157;28;20051;-40
2022/12/02 18:47:40;;;;;;;19.17;9.52;;;;;;;;;;2121157;28;20058;-40
2022/12/02 18:48:41;;;;;;;19.48;9.90;;;;;;;;;;2121351;28;20047;-45
2022/12/02 18:49:43;;;;;;;18.42;9.15;;;;;;;;;;2121243;28;20441;-45
2022/12/02 18:50:44;;;;;;;19.52;11.07;;;;;;;;;;2121199;28;20055;-44
2022/12/02 18:51:45;;;;;;;19.77;9.45;;;;;;;;;;2121195;28;20092;-45
2022/12/02 18:52:47;;;;;;;19.73;10.25;;;;;;;;;;2121003;28;20044;-44
2022/12/02 18:53:47;;;;;;;20.20;10.52;;;;;;;;;;2121033;28;20043;-44
2022/12/02 18:54:49;;;;;;;18.40;10.57;;;;;;;;;;2121167;28;20493;-45
2022/12/02 18:55:50;;;;;;;18.60;10.60;;;;;;;;;;2121257;28;20057;-46
2022/12/02 18:56:51;;;;;;;15.93;8.98;;;;;;;;;;2121178;28;20051;-44
2022/12/02 18:57:52;;;;;;;18.80;10.90;;;;;;;;;;2120736;28;20085;-46
2022/12/02 18:58:55;;;;;;;19.67;11.30;;;;;;;;;;2121132;28;20503;-45
2022/12/02 18:59:56;;;;;;;17.38;9.40;;;;;;;;;;2121012;28;20050;-45
2022/12/02 19:00:57;;;;;;;20.73;11.60;;;;;;;;;;2121170;28;20486;-45
2022/12/02 19:01:58;;;;;;;19.75;10.10;;;;;;;;;;2120948;28;20376;-45
2022/12/02 19:02:59;;;;;;;16.00;8.07;;;;;;;;;;2120993;28;20257;-45
2022/12/02 19:04:00;;;;;;;18.80;10.52;;;;;;;;;;2121260;28;20104;-45
2022/12/02 19:05:02;;;;;;;19.77;12.02;;;;;;;;;;2120900;28;20040;-44
2022/12/02 19:06:03;;;;;;;;;;;;;;;;;;2121466;28;20483;-46
2022/12/02 19:07:04;;;;;;;16.17;9.10;;;;;;;;;;2121175;28;20061;-41
2022/12/02 19:08:05;;;;;;;20.33;10.48;;;;;;;;;;2120782;28;20039;-41
2022/12/02 19:09:06;;;;;;;20.70;10.40;;;;;;;;;;2121335;28;20047;-46
2022/12/02 19:10:08;;;;;;;16.67;8.23;;;;;;;;;;2120968;28;20491;-45
2022/12/02 19:11:09;;;;;;;18.50;10.75;;;;;;;;;;2121005;28;20051;-45
2022/12/02 19:12:10;;;;;;;20.05;9.32;;;;;;;;;;2121079;28;20043;-45
2022/12/02 19:13:11;;;;;;;18.75;10.82;;;;;;;;;;2120891;28;20054;-45
2022/12/02 19:14:12;;;;;;;17.95;10.45;;;;;;;;;;2120872;28;20047;-45
2022/12/02 19:15:13;;;;;;;19.97;11.47;;;;;;;;;;2121052;28;20079;-45
2022/12/02 19:16:14;;;;;;;20.52;11.43;;;;;;;;;;2120935;28;20047;-45
2022/12/02 19:17:15;;;;;;;17.88;9.75;;;;;;;;;;2121084;28;20134;-44
2022/12/02 19:18:16;;;;;;;23.05;11.82;;;;;;;;;;2120925;28;20039;-45
2022/12/02 19:19:17;;;;;;;18.57;11.43;;;;;;;;;;2121002;28;20058;-45
2022/12/02 19:20:19;;;;;;;20.83;10.77;;;;;;;;;;2120913;28;20066;-45
2022/12/02 19:21:20;;;;;;;18.30;10.48;;;;;;;;;;2120952;28;20385;-45
2022/12/02 19:22:25;;;;;;;18.63;8.90;;;;;;;;;;2120736;28;20043;-46
2022/12/02 19:23:26;;;;;;;21.97;10.57;;;;;;;;;;2120910;28;20078;-45
2022/12/02 19:24:27;;;;;;;20.80;11.93;;;;;;;;;;2121156;28;20051;-44
2022/12/02 19:25:29;;;;;;;25.52;12.77;;;;;;;;;;2121083;28;20451;-40
2022/12/02 19:26:30;;;;;;;;;;;;;;;;;;2121397;28;20051;-40
2022/12/02 19:27:31;;;;;;;21.40;9.65;;;;;;;;;;2120832;28;19981;-41
2022/12/02 19:28:52;;;;;;;19.60;10.50;;;;;;;;;;2120769;28;20077;-41
2022/12/02 19:29:53;;;;;;;21.05;10.95;;;;;;;;;;2120872;28;20403;-41
2022/12/02 19:30:55;;;;;;;20.75;11.15;;;;;;;;;;2120950;28;20048;-41
2022/12/02 19:31:55;;;;;;;21.40;10.85;;;;;;;;;;2120448;28;20039;-41
2022/12/02 19:32:57;;;;;;;20.50;11.23;;;;;;;;;;2120868;28;20147;-41
2022/12/02 19:33:58;;;;;;;21.40;10.93;;;;;;;;;;2117607;28;20044;-41
2022/12/02 19:34:59;;;;;;;20.00;10.50;;;;;;;;;;2115236;28;20075;-41
2022/12/02 19:36:01;;;;;;;18.38;10.13;;;;;;;;;;2115202;28;20043;-41
2022/12/02 19:37:02;;;;;;;19.52;11.13;;;;;;;;;;2115260;28;20069;-41
2022/12/02 19:38:03;;;;;;;17.20;9.77;;;;;;;;;;2114989;28;20052;-41
2022/12/02 19:39:10;;;;;;;20.83;11.27;;;;;;;;;;2115336;28;20055;-41
2022/12/02 19:40:12;;;;;;;22.53;12.53;;;;;;;;;;2115153;28;20079;-41
2022/12/02 19:41:13;;;;;;;20.13;11.30;;;;;;;;;;2115193;28;20044;-41
2022/12/02 19:42:14;;;;;;;24.25;12.20;;;;;;;;;;2114929;28;20433;-41
2022/12/02 19:43:15;;;;;;;17.83;10.45;;;;;;;;;;2115295;28;20055;-46
2022/12/02 19:44:16;;;;;;;20.48;11.57;;;;;;;;;;2115236;28;20043;-45
2022/12/02 19:45:18;;;;;;;21.30;10.07;;;;;;;;;;2115288;28;20507;-45
2022/12/02 19:46:18;;;;;;;19.33;11.55;;;;;;;;;;2115117;28;20488;-45
2022/12/02 19:47:20;;;;;;;20.33;10.70;;;;;;;;;;2115001;28;20082;-45
2022/12/02 19:48:22;;;;;;;22.25;10.10;;;;;;;;;;2115219;28;20291;-44
2022/12/02 19:49:23;;;;;;;19.52;10.98;;;;;;;;;;2115111;28;20048;-45
2022/12/02 19:50:24;;;;;;;20.80;11.50;;;;;;;;;;2115076;28;20067;-45
2022/12/02 19:51:26;;;;;;;21.20;10.90;;;;;;;;;;2115230;28;20484;-40
2022/12/02 19:52:27;;;;;;;19.27;11.30;;;;;;;;;;2115495;28;20052;-40
2022/12/02 19:53:28;;;;;;;21.80;11.75;;;;;;;;;;2114993;28;20450;-40
2022/12/02 19:54:29;;;;;;;21.15;11.48;;;;;;;;;;2115081;28;20081;-40
2022/12/02 19:55:30;;;;;;;19.15;11.38;;;;;;;;;;2115081;28;20054;-40
2022/12/02 19:56:31;;;;;;;19.90;9.65;;;;;;;;;;2114885;28;20044;-40
2022/12/02 19:57:32;;;;;;;21.70;11.30;;;;;;;;;;2115028;28;20052;-40
2022/12/02 19:58:33;;;;;;;25.70;12.27;;;;;;;;;;2115293;28;20051;-41
2022/12/02 19:59:34;;;;;;;24.35;12.05;;;;;;;;;;2114905;28;20058;-40
2022/12/02 20:00:35;;;;;;;17.65;11.05;;;;;;;;;;2115085;28;20174;-40
2022/12/02 20:01:36;;;;;;;18.90;11.53;;;;;;;;;;2115164;28;20047;-40
2022/12/02 20:02:40;;;;;;;19.42;10.43;;;;;;;;;;2114748;28;20039;-41
2022/12/02 20:03:41;;;;;;;20.25;11.23;;;;;;;;;;2115010;28;20130;-40
2022/12/02 20:04:42;;;;;;;24.02;11.45;;;;;;;;;;2115281;28;20051;-49
2022/12/02 20:05:43;;;;;;;18.07;9.23;;;;;;;;;;2114855;28;20537;-45
2022/12/02 20:06:45;;;;;;;19.50;10.68;;;;;;;;;;2115315;28;20058;-40
2022/12/02 20:07:46;;;;;;;23.00;12.35;;;;;;;;;;2114815;28;20420;-40
2022/12/02 20:08:47;;;;;;;21.65;11.73;;;;;;;;;;2115046;28;20062;-45
2022/12/02 20:09:48;;;;;;;20.27;11.43;;;;;;;;;;2114868;28;20048;-46
2022/12/02 20:10:49;;;;;;;20.33;10.50;;;;;;;;;;2115035;28;20048;-44
2022/12/02 20:11:50;;;;;;;21.63;12.27;;;;;;;;;;2115126;28;20073;-41
2022/12/02 20:12:51;;;;;;;17.85;8.93;;;;;;;;;;2114988;28;20044;-40
2022/12/02 20:13:52;;;;;;;24.02;12.48;;;;;;;;;;2114933;28;20518;-41
2022/12/02 20:14:53;;;;;;;19.80;11.80;;;;;;;;;;2114800;28;20046;-41
2022/12/02 20:15:55;;;;;;;22.52;11.38;;;;;;;;;;2115045;28;20043;-40
2022/12/02 20:16:59;;;;;;;18.38;11.43;;;;;;;;;;2115026;28;20036;-40
2022/12/02 20:18:00;;;;;;;23.33;12.57;;;;;;;;;;2114932;28;20047;-40
2022/12/02 20:19:01;;;;;;;21.60;10.93;;;;;;;;;;2114888;28;20044;-40
2022/12/02 20:20:03;;;;;;;18.60;11.63;;;;;;;;;;2115007;28;20050;-40
2022/12/02 20:21:04;;;;;;;22.92;12.43;;;;;;;;;;2115167;28;20039;-45
2022/12/02 20:22:09;;;;;;;22.73;12.73;;;;;;;;;;2114876;28;20047;-45
2022/12/02 20:23:10;;;;;;;23.35;11.68;;;;;;;;;;2114785;28;20048;-45
2022/12/02 20:24:11;;;;;;;22.43;12.47;;;;;;;;;;2115154;28;20538;-40
2022/12/02 20:25:12;;;;;;;22.73;12.45;;;;;;;;;;2114943;28;20044;-40
2022/12/02 20:26:13;;;;;;;26.80;12.77;;;;;;;;;;2114899;28;20052;-40
2022/12/02 20:27:14;;;;;;;25.38;13.20;;;;;;;;;;2114771;28;20168;-40
2022/12/02 20:28:15;;;;;;;21.85;10.13;;;;;;;;;;2114611;28;20047;-40
2022/12/02 20:29:16;;;;;;;21.92;11.80;;;;;;;;;;2115167;28;20138;-40
2022/12/02 20:30:17;;;;;;;22.25;11.80;;;;;;;;;;2114712;28;20040;-40
2022/12/02 20:31:18;;;;;;;19.63;9.40;;;;;;;;;;2115129;28;20051;-40
2022/12/02 20:32:19;;;;;;;22.75;12.35;;;;;;;;;;2110671;28;20099;-40
2022/12/02 20:33:20;;;;;;;23.95;12.48;;;;;;;;;;2106389;28;20097;-41
2022/12/02 20:34:21;;;;;;;22.38;12.07;;;;;;;;;;2106485;28;20051;-40
2022/12/02 20:35:23;;;;;;;21.15;12.43;;;;;;;;;;2106365;28;20055;-40
2022/12/02 20:36:24;;;;;;;21.70;12.02;;;;;;;;;;2106370;28;20275;-40
2022/12/02 20:37:25;;;;;;;19.77;11.10;;;;;;;;;;2106277;28;20134;-40
2022/12/02 20:38:27;;;;;;;20.48;11.77;;;;;;;;;;2106454;28;20044;-40
2022/12/02 20:39:27;;;;;;;22.85;11.95;;;;;;;;;;2106188;28;20048;-40
2022/12/02 20:40:29;;;;;;;21.05;11.48;;;;;;;;;;2106350;28;20117;-40
2022/12/02 20:41:30;;;;;;;24.02;12.25;;;;;;;;;;2106280;28;20404;-40
2022/12/02 20:42:31;;;;;;;20.42;11.77;;;;;;;;;;2106160;28;20052;-40
2022/12/02 20:43:32;;;;;;;21.48;11.77;;;;;;;;;;2106359;28;20393;-40
2022/12/02 20:44:33;;;;;;;23.15;12.40;;;;;;;;;;2106406;28;20127;-40
2022/12/02 20:45:34;;;;;;;21.15;10.65;;;;;;;;;;2105657;28;20091;-40
2022/12/02 20:46:35;;;;;;;19.17;11.30;;;;;;;;;;2105908;28;20044;-40
2022/12/02 20:47:36;;;;;;;25.93;13.37;;;;;;;;;;2106274;28;20127;-41
2022/12/02 20:48:37;;;;;;;23.55;12.75;;;;;;;;;;2106424;28;20388;-41
2022/12/02 20:49:38;;;;;;;16.77;9.40;;;;;;;;;;2106423;28;20075;-41
2022/12/02 20:50:39;;;;;;;22.38;12.32;;;;;;;;;;2106399;28;20047;-41
2022/12/02 20:51:40;;;;;;;21.10;12.32;;;;;;;;;;2106227;28;20481;-41
2022/12/02 20:52:42;;;;;;;20.77;10.32;;;;;;;;;;2106223;28;20048;-40
2022/12/02 20:53:52;;;;;;;27.98;12.50;;;;;;;;;;2106393;28;20052;-41
2022/12/02 20:54:53;;;;;;;22.83;12.25;;;;;;;;;;2106457;28;20048;-40
2022/12/02 20:55:54;;;;;;;22.45;11.70;;;;;;;;;;2106336;28;20052;-40
2022/12/02 20:56:56;;;;;;;19.77;12.07;;;;;;;;;;2106502;28;20072;-46
2022/12/02 20:57:57;;;;;;;23.83;12.23;;;;;;;;;;2106118;28;20058;-45
2022/12/02 20:58:58;;;;;;;24.58;12.18;;;;;;;;;;2106097;28;20044;-45
2022/12/02 20:59:59;;;;;;;19.23;11.32;;;;;;;;;;2106326;28;20051;-45
2022/12/02 21:01:00;;;;;;;26.13;11.95;;;;;;;;;;2106288;28;20504;-46
2022/12/02 21:02:02;;;;;;;20.90;11.88;;;;;;;;;;2106134;28;20044;-44
2022/12/02 21:03:03;;;;;;;22.02;11.95;;;;;;;;;;2105950;28;20539;-45
2022/12/02 21:04:04;;;;;;;21.52;10.23;;;;;;;;;;2106060;28;20044;-46
2022/12/02 21:05:08;;;;;;;19.20;11.00;;;;;;;;;;2106276;28;20048;-45
2022/12/02 21:06:09;;;;;;;17.70;10.48;;;;;;;;;;2106153;28;20044;-46
2022/12/02 21:07:10;;;;;;;19.20;11.73;;;;;;;;;;2106392;28;20044;-40
2022/12/02 21:08:12;;;;;;;20.92;11.45;;;;;;;;;;2106043;28;20087;-42
2022/12/02 21:09:14;;;;;;;21.05;12.05;;;;;;;;;;2106092;28;20051;-41
2022/12/02 21:10:15;;;;;;;;;;;;;;;;;;2106579;28;20059;-40
2022/12/02 21:11:16;;;;;;;15.85;8.43;;;;;;;;;;2106212;28;20295;-40
2022/12/02 21:12:17;;;;;;;20.83;10.80;;;;;;;;;;2106020;28;20409;-40
2022/12/02 21:13:20;;;;;;;18.63;10.52;;;;;;;;;;2105960;28;20044;-40
2022/12/02 21:14:21;;;;;;;18.77;8.55;;;;;;;;;;2106330;28;20048;-41
2022/12/02 21:15:22;;;;;;;18.50;11.23;;;;;;;;;;2106080;28;20079;-41
2022/12/02 21:16:23;;;;;;;18.75;11.02;;;;;;;;;;2106030;28;20095;-41
2022/12/02 21:17:25;;;;;;;21.10;12.30;;;;;;;;;;2105927;28;20128;-40
2022/12/02 21:18:26;;;;;;;17.00;9.50;;;;;;;;;;2106111;28;20055;-40
2022/12/02 21:19:27;;;;;;;18.53;10.50;;;;;;;;;;2106058;28;20413;-40
2022/12/02 21:20:28;;;;;;;18.77;10.07;;;;;;;;;;2106020;28;20511;-40